sensor_id;sensor_type;location;lat;lon;timestamp;temperature;humidity
19344;DHT22;9808;52.402;16.678;2022-08-19T18:39:45;25.80;99.90
19344;DHT22;9808;52.402;16.678;2022-08-19T18:42:31;25.50;99.90
19344;DHT22;9808;52.402;16.678;2022-08-19T18:45:16;25.50;99.90
19344;DHT22;9808;52.402;16.678;2022-08-19T18:48:02;25.40;99.90
19344;DHT22;9808;52.402;16.678;2022-08-19T18:50:54;25.40;99.90
19344;DHT22;9808;52.402;16.678;2022-08-19T18:53:22;25.40;99.90
19344;DHT22;9808;52.402;16.678;2022-08-19T18:55:48;25.40;99.90
19344;DHT22;9808;52.402;16.678;2022-08-19T18:58:23;25.40;99.90
19344;DHT22;9808;52.402;16.678;2022-08-19T19:00:52;25.40;99.90
19344;DHT22;9808;52.402;16.678;2022-08-19T19:03:24;25.40;99.90
19344;DHT22;9808;52.402;16.678;2022-08-19T19:05:51;25.40;99.90
19344;DHT22;9808;52.402;16.678;2022-08-19T19:08:18;25.40;99.90
19344;DHT22;9808;52.402;16.678;2022-08-19T19:10:45;25.40;99.90
19344;DHT22;9808;52.402;16.678;2022-08-19T19:13:16;25.40;99.90
19344;DHT22;9808;52.402;16.678;2022-08-19T19:15:43;25.40;99.90
19344;DHT22;9808;52.402;16.678;2022-08-19T19:18:10;25.40;99.90
19344;DHT22;9808;52.402;16.678;2022-08-19T19:20:41;25.40;99.90
19344;DHT22;9808;52.402;16.678;2022-08-19T19:23:08;25.40;99.90
19344;DHT22;9808;52.402;16.678;2022-08-19T19:25:37;25.30;99.90
19344;DHT22;9808;52.402;16.678;2022-08-19T19:28:20;25.30;99.90
19344;DHT22;9808;52.402;16.678;2022-08-19T19:30:56;25.30;99.90
19344;DHT22;9808;52.402;16.678;2022-08-19T19:33:26;25.30;99.90
19344;DHT22;9808;52.402;16.678;2022-08-19T19:35:53;25.30;99.90
19344;DHT22;9808;52.402;16.678;2022-08-19T19:38:20;25.20;99.90
19344;DHT22;9808;52.402;16.678;2022-08-19T19:40:47;25.20;99.90
19344;DHT22;9808;52.402;16.678;2022-08-19T19:43:13;25.20;99.90
19344;DHT22;9808;52.402;16.678;2022-08-19T19:45:45;25.20;99.90
19344;DHT22;9808;52.402;16.678;2022-08-19T19:48:13;25.20;99.90
19344;DHT22;9808;52.402;16.678;2022-08-19T19:50:43;25.20;99.90
19344;DHT22;9808;52.402;16.678;2022-08-19T19:53:10;25.10;99.90
19344;DHT22;9808;52.402;16.678;2022-08-19T19:55:38;25.10;99.90
19344;DHT22;9808;52.402;16.678;2022-08-19T19:58:06;25.10;99.90
19344;DHT22;9808;52.402;16.678;2022-08-19T20:00:34;25.10;99.90
19344;DHT22;9808;52.402;16.678;2022-08-19T20:03:00;25.00;99.90
19344;DHT22;9808;52.402;16.678;2022-08-19T20:05:27;25.00;99.90
19344;DHT22;9808;52.402;16.678;2022-08-19T20:07:54;25.00;99.90
19344;DHT22;9808;52.402;16.678;2022-08-19T20:10:41;25.00;99.90
19344;DHT22;9808;52.402;16.678;2022-08-19T20:13:09;25.00;99.90
19344;DHT22;9808;52.402;16.678;2022-08-19T20:15:37;24.90;99.90
19344;DHT22;9808;52.402;16.678;2022-08-19T20:18:10;24.90;99.90
19344;DHT22;9808;52.402;16.678;2022-08-19T20:20:37;24.90;99.90
19344;DHT22;9808;52.402;16.678;2022-08-19T20:23:04;24.90;99.90
19344;DHT22;9808;52.402;16.678;2022-08-19T20:25:31;24.80;99.90
19344;DHT22;9808;52.402;16.678;2022-08-19T20:27:59;24.80;99.90
19344;DHT22;9808;52.402;16.678;2022-08-19T20:30:27;24.80;99.90
19344;DHT22;9808;52.402;16.678;2022-08-19T20:32:58;24.80;99.90
19344;DHT22;9808;52.402;16.678;2022-08-19T20:35:25;24.80;99.90
19344;DHT22;9808;52.402;16.678;2022-08-19T20:37:52;24.80;99.90
19344;DHT22;9808;52.402;16.678;2022-08-19T20:40:25;24.80;99.90
19344;DHT22;9808;52.402;16.678;2022-08-19T20:42:52;24.80;99.90
19344;DHT22;9808;52.402;16.678;2022-08-19T20:45:21;24.80;99.90
19344;DHT22;9808;52.402;16.678;2022-08-19T20:48:03;24.70;99.90
19344;DHT22;9808;52.402;16.678;2022-08-19T20:50:32;24.70;99.90
19344;DHT22;9808;52.402;16.678;2022-08-19T20:53:07;24.70;99.90
19344;DHT22;9808;52.402;16.678;2022-08-19T20:55:34;24.90;99.90
19344;DHT22;9808;52.402;16.678;2022-08-19T20:58:01;24.70;99.90
19344;DHT22;9808;52.402;16.678;2022-08-19T21:00:28;25.10;99.90
19344;DHT22;9808;52.402;16.678;2022-08-19T21:02:56;24.60;99.90
19344;DHT22;9808;52.402;16.678;2022-08-19T21:05:23;24.60;99.90
19344;DHT22;9808;52.402;16.678;2022-08-19T21:07:55;24.60;99.90
19344;DHT22;9808;52.402;16.678;2022-08-19T21:10:23;24.60;99.90
19344;DHT22;9808;52.402;16.678;2022-08-19T21:12:51;24.60;99.90
19344;DHT22;9808;52.402;16.678;2022-08-19T21:15:19;24.50;99.90
19344;DHT22;9808;52.402;16.678;2022-08-19T21:17:45;24.50;99.90
19344;DHT22;9808;52.402;16.678;2022-08-19T21:20:14;24.50;99.90
19344;DHT22;9808;52.402;16.678;2022-08-19T21:22:41;24.40;99.90
19344;DHT22;9808;52.402;16.678;2022-08-19T21:25:07;24.30;99.90
19344;DHT22;9808;52.402;16.678;2022-08-19T21:27:34;24.30;99.90
19344;DHT22;9808;52.402;16.678;2022-08-19T21:30:02;24.30;99.90
19344;DHT22;9808;52.402;16.678;2022-08-19T21:32:29;24.20;99.90
19344;DHT22;9808;52.402;16.678;2022-08-19T21:34:56;24.20;99.90
19344;DHT22;9808;52.402;16.678;2022-08-19T21:37:23;24.10;99.90
19344;DHT22;9808;52.402;16.678;2022-08-19T21:39:52;24.10;99.90
19344;DHT22;9808;52.402;16.678;2022-08-19T21:42:19;24.10;99.90
19344;DHT22;9808;52.402;16.678;2022-08-19T21:44:46;24.10;99.90
19344;DHT22;9808;52.402;16.678;2022-08-19T21:47:13;24.10;99.90
19344;DHT22;9808;52.402;16.678;2022-08-19T21:49:39;24.00;99.90
19344;DHT22;9808;52.402;16.678;2022-08-19T21:52:07;24.00;99.90
19344;DHT22;9808;52.402;16.678;2022-08-19T21:54:34;23.90;99.90
19344;DHT22;9808;52.402;16.678;2022-08-19T21:57:05;23.90;99.90
19344;DHT22;9808;52.402;16.678;2022-08-19T21:59:39;23.90;99.90
19344;DHT22;9808;52.402;16.678;2022-08-19T22:02:12;23.90;99.90
19344;DHT22;9808;52.402;16.678;2022-08-19T22:04:51;23.90;99.90
19344;DHT22;9808;52.402;16.678;2022-08-19T22:07:19;23.80;99.90
19344;DHT22;9808;52.402;16.678;2022-08-19T22:09:48;23.80;99.90
19344;DHT22;9808;52.402;16.678;2022-08-19T22:12:28;23.80;99.90
19344;DHT22;9808;52.402;16.678;2022-08-19T22:14:56;23.80;99.90
19344;DHT22;9808;52.402;16.678;2022-08-19T22:17:24;23.70;99.90
19344;DHT22;9808;52.402;16.678;2022-08-19T22:19:54;23.70;99.90
19344;DHT22;9808;52.402;16.678;2022-08-19T22:22:27;23.70;99.90
19344;DHT22;9808;52.402;16.678;2022-08-19T22:25:05;23.60;99.90
19344;DHT22;9808;52.402;16.678;2022-08-19T22:27:32;23.70;99.90
19344;DHT22;9808;52.402;16.678;2022-08-19T22:30:00;23.70;99.90
19344;DHT22;9808;52.402;16.678;2022-08-19T22:32:29;23.60;99.90
19344;DHT22;9808;52.402;16.678;2022-08-19T22:34:57;23.70;99.90
19344;DHT22;9808;52.402;16.678;2022-08-19T22:37:26;23.90;99.90
19344;DHT22;9808;52.402;16.678;2022-08-19T22:39:53;23.50;99.90
19344;DHT22;9808;52.402;16.678;2022-08-19T22:42:20;23.50;99.90
19344;DHT22;9808;52.402;16.678;2022-08-19T22:44:47;23.50;99.90
19344;DHT22;9808;52.402;16.678;2022-08-19T22:47:15;23.50;99.90
19344;DHT22;9808;52.402;16.678;2022-08-19T22:49:42;23.40;99.90
19344;DHT22;9808;52.402;16.678;2022-08-19T22:52:09;23.50;99.90
19344;DHT22;9808;52.402;16.678;2022-08-19T22:54:50;23.70;99.90
19344;DHT22;9808;52.402;16.678;2022-08-19T22:57:18;23.40;99.90
19344;DHT22;9808;52.402;16.678;2022-08-19T22:59:51;23.30;99.90
19344;DHT22;9808;52.402;16.678;2022-08-19T23:02:23;23.40;99.90
19344;DHT22;9808;52.402;16.678;2022-08-19T23:04:50;23.30;99.90
19344;DHT22;9808;52.402;16.678;2022-08-19T23:07:19;23.30;99.90
19344;DHT22;9808;52.402;16.678;2022-08-19T23:09:49;23.30;99.90
19344;DHT22;9808;52.402;16.678;2022-08-19T23:12:26;23.30;99.90
19344;DHT22;9808;52.402;16.678;2022-08-19T23:14:53;23.20;99.90
19344;DHT22;9808;52.402;16.678;2022-08-19T23:17:20;23.30;99.90
19344;DHT22;9808;52.402;16.678;2022-08-19T23:19:47;23.20;99.90
19344;DHT22;9808;52.402;16.678;2022-08-19T23:22:17;23.20;99.90
19344;DHT22;9808;52.402;16.678;2022-08-19T23:24:50;23.20;99.90
19344;DHT22;9808;52.402;16.678;2022-08-19T23:27:21;23.20;99.90
19344;DHT22;9808;52.402;16.678;2022-08-19T23:30:07;23.20;99.90
19344;DHT22;9808;52.402;16.678;2022-08-19T23:33:01;23.20;99.90
19344;DHT22;9808;52.402;16.678;2022-08-19T23:35:36;23.20;99.90
19344;DHT22;9808;52.402;16.678;2022-08-19T23:38:04;23.10;99.90
19344;DHT22;9808;52.402;16.678;2022-08-19T23:40:33;23.10;99.90
19344;DHT22;9808;52.402;16.678;2022-08-19T23:43:00;23.10;99.90
19344;DHT22;9808;52.402;16.678;2022-08-19T23:45:37;23.10;99.90
19344;DHT22;9808;52.402;16.678;2022-08-19T23:48:05;23.10;99.90
19344;DHT22;9808;52.402;16.678;2022-08-19T23:50:33;23.10;99.90
19344;DHT22;9808;52.402;16.678;2022-08-19T23:53:00;23.10;99.90
19344;DHT22;9808;52.402;16.678;2022-08-19T23:55:31;23.10;99.90
19344;DHT22;9808;52.402;16.678;2022-08-19T23:58:00;23.10;99.90
